Time;durP1;ratioP1;P1;durP2;ratioP2;P2;SDS_P1;SDS_P2;PMS_P1;PMS_P2;Temp;Humidity;BMP_temperature;BMP_pressure;BME280_temperature;BME280_humidity;BME280_pressure;Samples;Min_cycle;Max_cycle;Signal;HPM_P1;HPM_P2
2024/02/17 00:00:07;;;;;;;8.63;7.73;;;11.60;99.90;;;11.45;100.00;98456.97;5049348;28;20824;-75
2024/02/17 00:02:35;;;;;;;9.73;8.77;;;11.70;99.90;;;11.53;100.00;98458.63;5045423;28;20447;-77
2024/02/17 00:05:02;;;;;;;9.73;8.73;;;11.70;99.90;;;11.18;100.00;98398.31;5052940;28;20555;-76
2024/02/17 00:07:30;;;;;;;8.90;8.10;;;11.70;99.90;;;11.54;100.00;98449.47;5058493;28;20451;-77
2024/02/17 00:09:57;;;;;;;9.30;8.50;;;11.70;99.90;;;11.59;100.00;98464.00;5055249;28;20447;-77
2024/02/17 00:12:26;;;;;;;9.83;8.93;;;11.70;99.90;;;11.44;100.00;98468.81;5054051;28;20528;-76
2024/02/17 00:14:53;;;;;;;9.47;8.40;;;11.70;99.90;;;11.42;100.00;98460.06;5035912;28;20468;-76
2024/02/17 00:17:20;;;;;;;9.70;8.53;;;11.60;99.90;;;11.36;100.00;98463.63;5046954;28;20480;-78
2024/02/17 00:19:47;;;;;;;9.60;8.70;;;11.70;99.90;;;11.51;100.00;98466.94;5054512;28;20466;-77
2024/02/17 00:22:16;;;;;;;10.47;9.37;;;11.70;99.90;;;11.45;100.00;98463.19;5052557;28;20463;-79
2024/02/17 00:24:43;;;;;;;9.60;8.70;;;11.60;99.90;;;11.46;100.00;98469.47;5056433;28;20523;-77
2024/02/17 00:27:10;;;;;;;10.03;8.97;;;11.60;99.90;;;11.45;100.00;98468.59;5053520;28;20447;-73
2024/02/17 00:29:39;;;;;;;9.67;8.77;;;11.60;99.90;;;11.35;100.00;98479.00;5046775;28;20783;-77
2024/02/17 00:32:07;;;;;;;9.00;8.07;;;11.60;99.90;;;11.36;100.00;98474.44;5046706;28;20541;-75
2024/02/17 00:34:34;;;;;;;10.47;9.47;;;11.60;99.90;;;11.41;100.00;98488.16;5043802;28;20455;-79
2024/02/17 00:37:01;;;;;;;10.13;9.10;;;11.60;99.90;;;11.25;100.00;98478.63;5048470;28;21049;-75
2024/02/17 00:39:28;;;;;;;10.33;9.30;;;11.50;99.90;;;11.26;100.00;98480.28;5045968;28;20494;-77
2024/02/17 00:41:55;;;;;;;10.37;8.00;;;11.50;99.90;;;11.37;100.00;98486.94;5060217;28;20456;-77
2024/02/17 00:44:24;;;;;;;10.10;9.10;;;11.50;99.90;;;11.32;100.00;98483.00;5047455;28;20475;-75
2024/02/17 00:46:53;;;;;;;10.43;9.43;;;11.60;99.90;;;11.30;100.00;98487.78;5047869;28;20491;-75
2024/02/17 00:49:20;;;;;;;8.63;7.70;;;11.60;99.90;;;11.12;100.00;98484.84;5062032;28;20459;-79
2024/02/17 00:51:47;;;;;;;9.17;8.27;;;11.40;99.90;;;11.24;100.00;98488.59;5046935;28;20939;-78
2024/02/17 00:54:14;;;;;;;9.90;8.90;;;11.50;99.90;;;11.16;100.00;98492.34;5047617;28;20482;-76
2024/02/17 00:56:41;;;;;;;10.37;9.40;;;11.40;99.90;;;11.19;100.00;98491.91;5048086;28;20454;-73
2024/02/17 00:59:09;;;;;;;8.80;8.00;;;11.40;99.90;;;11.23;100.00;98489.63;5046428;28;20460;-71
2024/02/17 01:01:36;;;;;;;11.13;10.03;;;11.40;99.90;;;11.09;100.00;98490.66;5051629;28;20463;-77
2024/02/17 01:04:05;;;;;;;12.13;10.73;;;11.40;99.90;;;11.16;100.00;98480.72;5057316;28;20509;-73
2024/02/17 01:06:32;;;;;;;11.80;10.60;;;11.40;99.90;;;11.25;100.00;98490.25;5046540;28;20797;-76
2024/02/17 01:08:59;;;;;;;13.70;10.30;;;11.40;99.90;;;11.12;100.00;98490.25;5047039;28;20932;-78
2024/02/17 01:11:27;;;;;;;10.30;9.27;;;11.40;99.90;;;11.07;100.00;98498.16;5048009;28;20449;-77
2024/02/17 01:13:54;;;;;;;10.60;9.60;;;11.40;99.90;;;11.08;100.00;98495.25;5048428;28;20553;-77
2024/02/17 01:16:21;;;;;;;10.53;9.43;;;11.40;99.90;;;11.14;100.00;98493.56;5047766;28;20459;-77
2024/02/17 01:18:49;;;;;;;9.70;8.80;;;11.40;99.90;;;11.04;100.00;98477.78;5046411;28;20465;-78
2024/02/17 01:21:18;;;;;;;11.70;9.37;;;11.40;99.90;;;11.19;100.00;98499.22;5046943;28;20443;-74
2024/02/17 01:23:45;;;;;;;12.70;9.20;;;11.40;99.90;;;11.11;100.00;98500.25;5045862;28;20464;-79
2024/02/17 01:26:12;;;;;;;10.97;8.80;;;11.40;99.90;;;11.22;100.00;98501.50;5047295;28;20484;-78
2024/02/17 01:28:39;;;;;;;9.43;8.43;;;11.40;99.90;;;11.11;100.00;98500.25;5046455;28;20517;-77
2024/02/17 01:31:07;;;;;;;8.40;7.60;;;11.40;99.90;;;11.20;100.00;98509.00;5047249;28;20460;-77
2024/02/17 01:33:34;;;;;;;11.10;8.43;;;11.40;99.90;;;11.20;100.00;98514.41;5044833;28;20442;-74
2024/02/17 01:36:02;;;;;;;9.27;7.80;;;11.40;99.90;;;11.21;100.00;98510.66;5045535;28;20461;-77
2024/02/17 01:38:31;;;;;;;8.57;7.73;;;11.40;99.90;;;11.22;100.00;98517.72;5072526;28;20579;-76
2024/02/17 01:40:58;;;;;;;7.70;6.90;;;11.40;99.90;;;11.18;100.00;98511.06;5052535;28;20866;-74
2024/02/17 01:43:25;;;;;;;8.00;7.23;;;11.40;99.90;;;11.26;100.00;98515.44;5047026;28;20546;-76
2024/02/17 01:45:52;;;;;;;9.47;8.57;;;11.40;99.90;;;11.11;100.00;98510.22;5047936;28;20484;-78
2024/02/17 01:48:20;;;;;;;9.40;7.90;;;11.40;99.90;;;11.13;100.00;98517.09;5045037;28;20852;-78
2024/02/17 01:50:47;;;;;;;9.40;8.50;;;11.30;99.90;;;11.16;100.00;98515.88;5047580;28;20443;-76
2024/02/17 01:53:15;;;;;;;7.70;7.00;;;11.40;99.90;;;11.20;100.00;98522.50;5045269;28;20533;-79
2024/02/17 01:55:44;;;;;;;8.43;7.63;;;11.40;99.90;;;11.14;100.00;98520.63;5046920;28;20452;-78
2024/02/17 01:58:11;;;;;;;7.87;7.17;;;11.40;99.90;;;11.24;100.00;98518.34;5048055;28;20536;-77
2024/02/17 02:00:40;;;;;;;8.40;7.60;;;11.40;99.90;;;11.19;100.00;98529.78;5056994;28;20445;-77
2024/02/17 02:03:07;;;;;;;8.13;7.47;;;11.40;99.90;;;11.07;100.00;98525.19;5046373;28;20439;-73
2024/02/17 02:05:34;;;;;;;8.20;7.50;;;11.30;99.90;;;11.09;100.00;98526.66;5053763;28;20463;-79
2024/02/17 02:08:02;;;;;;;9.70;6.83;;;11.30;99.90;;;11.20;100.00;98527.94;5053290;28;20460;-73
2024/02/17 02:10:29;;;;;;;8.07;7.30;;;11.40;99.90;;;11.13;100.00;98518.97;5062171;28;21026;-78
2024/02/17 02:12:58;;;;;;;7.17;6.57;;;11.40;99.90;;;11.12;100.00;98528.97;5047334;28;20458;-79
2024/02/17 02:15:28;;;;;;;6.83;6.23;;;11.40;99.90;;;11.07;100.00;98525.19;5048011;28;20864;-75
2024/02/17 02:17:55;;;;;;;6.93;6.33;;;11.40;99.90;;;11.11;100.00;98526.44;5049984;28;20452;-74
2024/02/17 02:20:24;;;;;;;7.53;6.67;;;11.40;99.90;;;11.08;100.00;98524.16;5050963;28;20463;-75
2024/02/17 02:22:52;;;;;;;6.47;5.90;;;11.40;99.90;;;11.00;100.00;98536.00;5052478;28;20455;-76
2024/02/17 02:25:26;;;;;;;7.97;7.17;;;11.40;99.90;;;11.10;100.00;98530.19;5058819;28;20482;-75
2024/02/17 02:27:55;;;;;;;8.30;7.50;;;11.40;99.90;;;11.09;100.00;98529.38;5050274;28;20477;-77
2024/02/17 02:30:23;;;;;;;6.90;6.30;;;11.30;99.90;;;11.01;100.00;98524.16;5048088;28;20465;-78
2024/02/17 02:32:51;;;;;;;7.23;6.63;;;11.30;99.90;;;11.02;100.00;98539.34;5067238;28;20454;-78
2024/02/17 02:35:20;;;;;;;7.47;6.83;;;11.30;99.90;;;10.98;100.00;98530.78;5061676;28;20455;-78
2024/02/17 02:37:47;;;;;;;7.27;6.67;;;11.30;99.90;;;11.12;100.00;98545.19;5048997;28;21197;-78
2024/02/17 02:40:14;;;;;;;7.90;7.20;;;11.40;99.90;;;11.08;100.00;98543.94;5049757;28;20450;-79
2024/02/17 02:42:42;;;;;;;9.37;7.03;;;11.30;99.90;;;11.01;100.00;98546.63;5049715;28;20460;-77
2024/02/17 02:45:11;;;;;;;7.00;6.30;;;11.30;99.90;;;11.04;100.00;98537.25;5049204;28;21281;-76
2024/02/17 02:47:38;;;;;;;7.10;6.50;;;11.30;99.90;;;10.97;100.00;98545.34;5064112;28;20459;-77
2024/02/17 02:50:08;;;;;;;7.67;7.03;;;11.30;99.90;;;11.04;100.00;98554.31;5048641;28;20480;-75
2024/02/17 02:52:35;;;;;;;8.20;7.40;;;11.30;99.90;;;11.07;100.00;98546.84;5051511;28;20457;-78
2024/02/17 02:55:03;;;;;;;7.80;7.10;;;11.30;99.90;;;11.14;100.00;98558.47;5056063;28;20944;-78
2024/02/17 02:57:30;;;;;;;8.20;7.40;;;11.30;99.90;;;11.08;100.00;98548.50;5049807;28;20465;-78
2024/02/17 02:59:58;;;;;;;8.60;7.67;;;11.30;99.90;;;11.02;100.00;98556.41;5048518;28;20467;-75
2024/02/17 03:02:26;;;;;;;8.00;7.30;;;11.30;99.90;;;11.08;100.00;98559.31;5049726;28;20447;-77
2024/02/17 03:04:55;;;;;;;7.13;6.43;;;11.30;99.90;;;10.94;100.00;98548.47;5048808;28;20830;-77
2024/02/17 03:07:23;;;;;;;7.20;6.60;;;11.30;99.90;;;10.84;100.00;98565.09;5048593;28;20462;-74
2024/02/17 03:09:50;;;;;;;6.70;6.00;;;11.20;99.90;;;10.85;100.00;98569.47;5049389;28;20456;-72
2024/02/17 03:12:17;;;;;;;8.30;7.40;;;11.20;99.90;;;10.80;100.00;98565.69;5050410;28;20448;-77
2024/02/17 03:14:45;;;;;;;7.97;7.20;;;11.20;99.90;;;10.70;100.00;98558.81;5049731;28;20453;-76
2024/02/17 03:17:12;;;;;;;8.43;7.63;;;11.20;99.90;;;10.74;100.00;98576.28;5057684;28;21131;-77
2024/02/17 03:19:41;;;;;;;7.40;6.73;;;11.10;99.90;;;10.72;100.00;98570.25;5047725;28;20583;-77
2024/02/17 03:22:09;;;;;;;7.40;6.70;;;11.10;99.90;;;10.69;100.00;98578.78;5061224;28;20452;-72
2024/02/17 03:24:36;;;;;;;8.60;7.20;;;11.10;99.90;;;10.68;100.00;98582.50;5072846;28;20445;-78
2024/02/17 03:27:05;;;;;;;7.67;6.80;;;11.10;99.90;;;10.60;100.00;98583.50;5048714;28;20518;-76
2024/02/17 03:29:32;;;;;;;8.17;7.30;;;11.00;99.90;;;10.56;100.00;98597.63;5078536;28;20457;-78
2024/02/17 03:32:00;;;;;;;8.90;7.47;;;11.00;99.90;;;10.62;100.00;98594.13;5059925;28;20516;-77
2024/02/17 03:34:28;;;;;;;8.23;7.43;;;11.00;99.90;;;10.48;100.00;98602.16;5042566;28;20461;-77
2024/02/17 03:36:56;;;;;;;9.27;7.97;;;11.00;99.90;;;10.52;100.00;98612.56;5053018;28;20456;-76
2024/02/17 03:39:23;;;;;;;8.33;6.80;;;10.90;99.90;;;10.41;100.00;98611.25;5047217;28;20456;-76
2024/02/17 03:41:51;;;;;;;7.70;6.83;;;10.90;99.90;;;10.40;100.00;98618.53;5049954;28;20477;-75
2024/02/17 03:44:19;;;;;;;7.33;6.63;;;10.80;99.90;;;10.37;100.00;98629.69;5048662;28;20456;-79
2024/02/17 03:46:47;;;;;;;6.30;5.70;;;10.80;99.90;;;10.35;100.00;98631.78;5055450;28;20482;-78
2024/02/17 03:49:14;;;;;;;5.83;4.93;;;10.70;99.90;;;9.98;100.00;98631.94;5053763;28;20459;-78
2024/02/17 03:51:41;;;;;;;5.10;4.60;;;10.50;99.90;;;9.85;100.00;98643.50;5057564;28;20457;-79
2024/02/17 03:54:10;;;;;;;4.70;4.20;;;10.40;99.90;;;9.83;100.00;98655.50;5048436;28;20466;-79
2024/02/17 03:56:37;;;;;;;5.43;4.27;;;10.30;99.90;;;9.63;100.00;98659.72;5053390;28;20450;-78
2024/02/17 03:59:05;;;;;;;5.80;4.57;;;10.20;99.90;;;9.68;100.00;98666.38;5043421;28;20491;-79
2024/02/17 04:01:35;;;;;;;5.97;5.30;;;10.10;99.90;;;9.75;100.00;98659.16;5049039;28;20461;-76
2024/02/17 04:04:03;;;;;;;7.13;6.00;;;10.10;99.90;;;9.65;100.00;98670.28;5048439;28;20468;-77
2024/02/17 04:06:31;;;;;;;8.20;6.27;;;10.10;99.90;;;9.51;100.00;98669.34;5048867;28;20477;-76
2024/02/17 04:08:58;;;;;;;7.27;6.40;;;10.00;99.90;;;9.61;100.00;98677.13;5045784;28;20514;-73
2024/02/17 04:11:27;;;;;;;9.70;7.20;;;10.00;99.90;;;9.43;100.00;98682.94;5047005;28;20501;-76
2024/02/17 04:13:56;;;;;;;7.63;6.70;;;9.90;99.90;;;9.38;100.00;98685.38;5048329;28;20447;-77
2024/02/17 04:16:23;;;;;;;7.97;7.13;;;9.90;99.90;;;9.34;100.00;98693.03;5047522;28;20538;-78
2024/02/17 04:18:50;;;;;;;10.20;7.30;;;9.80;99.90;;;9.37;100.00;98684.53;5046188;28;20465;-75
2024/02/17 04:21:18;;;;;;;10.13;7.90;;;9.80;99.90;;;9.41;100.00;98703.88;5046589;28;20553;-77
2024/02/17 04:23:45;;;;;;;12.07;8.37;;;9.80;99.90;;;9.54;100.00;98706.72;5047964;28;20456;-76
2024/02/17 04:26:14;;;;;;;10.63;8.40;;;9.90;99.90;;;9.28;100.00;98710.78;5054266;28;20473;-78
2024/02/17 04:28:42;;;;;;;11.43;9.07;;;9.80;99.90;;;9.35;100.00;98714.41;5050642;28;20477;-78
2024/02/17 04:31:10;;;;;;;12.20;9.23;;;9.80;99.90;;;9.31;100.00;98721.19;5042229;28;21004;-75
2024/02/17 04:33:38;;;;;;;13.60;10.00;;;9.80;99.90;;;9.26;100.00;98731.72;5054820;28;20455;-77
2024/02/17 04:36:07;;;;;;;14.40;9.63;;;9.80;99.90;;;9.35;100.00;98730.59;5055815;28;20452;-75
2024/02/17 04:38:34;;;;;;;14.03;9.43;;;9.80;99.90;;;9.38;100.00;98728.53;5051979;28;20454;-77
2024/02/17 04:41:02;;;;;;;11.87;10.13;;;9.80;99.90;;;9.51;100.00;98728.69;5052690;28;20458;-77
2024/02/17 04:43:29;;;;;;;13.10;10.20;;;9.80;99.90;;;9.35;100.00;98735.13;5046422;28;20448;-78
2024/02/17 04:45:58;;;;;;;12.50;10.50;;;9.80;99.90;;;9.41;100.00;98728.16;5046043;28;20957;-78
2024/02/17 04:48:26;;;;;;;13.30;9.43;;;9.70;99.90;;;9.46;100.00;98731.09;5046897;28;20457;-74
2024/02/17 04:50:53;;;;;;;15.00;10.00;;;9.80;99.90;;;9.25;100.00;98713.88;5050680;28;20517;-77
2024/02/17 04:53:20;;;;;;;11.90;9.60;;;9.80;99.90;;;9.44;100.00;98735.84;5047356;28;20442;-76
2024/02/17 04:55:48;;;;;;;13.50;9.53;;;9.80;99.90;;;9.50;100.00;98744.03;5048170;28;20450;-76
2024/02/17 04:58:17;;;;;;;14.20;10.43;;;9.80;99.90;;;9.40;100.00;98745.38;5044905;28;20479;-78
2024/02/17 05:00:46;;;;;;;15.77;11.17;;;9.80;99.90;;;9.27;100.00;98749.56;5046054;28;20490;-75
2024/02/17 05:03:14;;;;;;;14.93;10.50;;;9.70;99.90;;;9.26;100.00;98757.88;5041720;28;20463;-75
2024/02/17 05:05:43;;;;;;;22.40;11.40;;;9.70;99.90;;;9.23;100.00;98764.47;5051313;28;20463;-78
2024/02/17 05:08:10;;;;;;;14.63;10.90;;;9.70;99.90;;;9.32;100.00;98768.72;5039483;28;20465;-78
2024/02/17 05:10:39;;;;;;;15.73;11.77;;;9.70;99.90;;;9.28;100.00;98762.03;5039046;28;20455;-79
2024/02/17 05:13:06;;;;;;;15.00;10.37;;;9.70;99.90;;;9.21;100.00;98780.00;5060354;28;20451;-79
2024/02/17 05:15:34;;;;;;;14.67;10.63;;;9.60;99.90;;;9.07;100.00;98774.44;5055344;28;20453;-75
2024/02/17 05:18:02;;;;;;;14.47;11.53;;;9.50;99.90;;;8.99;100.00;98774.50;5046472;28;20501;-73
2024/02/17 05:20:30;;;;;;;13.63;10.83;;;9.40;99.90;;;8.84;100.00;98776.38;5045058;28;20453;-74
2024/02/17 05:22:58;;;;;;;13.47;10.23;;;9.40;99.90;;;8.89;100.00;98784.75;5052050;28;20853;-74
2024/02/17 05:25:25;;;;;;;13.50;10.40;;;9.30;99.90;;;8.86;100.00;98790.50;5049387;28;20542;-77
2024/02/17 05:27:52;;;;;;;14.10;10.67;;;9.30;99.90;;;8.90;100.00;98798.03;5045681;28;20440;-77
2024/02/17 05:30:20;;;;;;;12.97;10.33;;;9.30;99.90;;;8.89;100.00;98795.53;5046377;28;20486;-74
2024/02/17 05:32:49;;;;;;;15.20;10.73;;;9.30;99.90;;;8.92;100.00;98800.56;5061882;28;20447;-75
2024/02/17 05:35:16;;;;;;;15.27;9.53;;;9.30;99.90;;;8.76;100.00;98802.41;5046324;28;20512;-77
2024/02/17 05:37:45;;;;;;;11.63;8.97;;;9.30;99.90;;;8.69;100.00;98798.75;5046858;28;20468;-75
2024/02/17 05:40:13;;;;;;;12.63;9.50;;;9.20;99.90;;;8.73;100.00;98801.94;5046395;28;20962;-77
2024/02/17 05:42:41;;;;;;;12.00;9.70;;;9.20;99.90;;;8.66;100.00;98809.91;5047584;28;20456;-78
2024/02/17 05:45:09;;;;;;;13.27;9.57;;;9.10;99.90;;;8.61;100.00;98815.84;5046697;28;20999;-75
2024/02/17 05:47:37;;;;;;;9.00;7.63;;;9.00;99.90;;;8.50;100.00;98819.81;5041287;28;20500;-76
2024/02/17 05:50:05;;;;;;;10.57;8.47;;;8.90;99.90;;;8.43;100.00;98831.47;5046183;28;20944;-75
2024/02/17 05:52:33;;;;;;;9.63;8.17;;;8.90;99.90;;;8.46;100.00;98828.41;5046359;28;20451;-78
2024/02/17 05:55:02;;;;;;;9.77;8.10;;;8.90;99.90;;;8.44;100.00;98839.38;5045641;28;20862;-76
2024/02/17 05:57:29;;;;;;;8.83;7.40;;;8.80;99.90;;;8.30;100.00;98832.09;5046767;28;20449;-76
2024/02/17 05:59:57;;;;;;;11.63;8.07;;;8.70;99.90;;;8.30;100.00;98837.47;5046185;28;20468;-77
2024/02/17 06:02:26;;;;;;;9.77;8.03;;;8.70;99.90;;;8.20;100.00;98849.31;5045613;28;20524;-74
2024/02/17 06:04:53;;;;;;;12.00;8.90;;;8.60;99.90;;;8.12;100.00;98848.53;5046287;28;20459;-75
2024/02/17 06:07:20;;;;;;;11.30;8.80;;;8.50;99.90;;;8.16;100.00;98866.84;5046451;28;20470;-77
2024/02/17 06:09:47;;;;;;;10.80;7.67;;;8.50;99.90;;;8.05;100.00;98861.88;5042836;28;20447;-77
2024/02/17 06:12:16;;;;;;;13.17;9.60;;;8.50;99.90;;;8.24;100.00;98874.03;5046615;28;20446;-76
2024/02/17 06:14:43;;;;;;;12.90;10.30;;;8.60;99.90;;;8.11;100.00;98880.00;5046074;28;20453;-75
2024/02/17 06:17:12;;;;;;;14.37;10.23;;;8.50;99.90;;;8.07;100.00;98875.97;5048589;28;20459;-73
2024/02/17 06:22:24;;;;;;;11.67;8.80;;;8.40;99.90;;;7.92;100.00;98898.28;5048486;28;20499;-74
2024/02/17 06:24:52;;;;;;;15.20;9.03;;;8.30;99.90;;;7.93;100.00;98899.94;5046739;28;20966;-72
2024/02/17 06:27:21;;;;;;;12.30;9.23;;;8.30;99.90;;;7.82;100.00;98905.75;5057618;28;20491;-75
2024/02/17 06:29:48;;;;;;;10.63;9.00;;;8.20;99.90;;;7.86;100.00;98904.38;5067696;28;20442;-75
2024/02/17 06:32:15;;;;;;;13.30;9.23;;;8.10;99.90;;;7.69;100.00;98908.16;5057678;28;20553;-76
2024/02/17 06:34:42;;;;;;;13.83;10.73;;;8.10;99.90;;;7.71;100.00;98911.50;5062373;28;20458;-75
2024/02/17 06:37:09;;;;;;;13.23;10.50;;;8.10;99.90;;;7.73;100.00;98920.22;5047584;28;20453;-75
2024/02/17 06:39:37;;;;;;;13.33;10.90;;;8.10;99.90;;;7.72;100.00;98919.38;5045643;28;20472;-72
2024/02/17 06:42:05;;;;;;;17.90;12.40;;;8.10;99.90;;;7.90;100.00;98921.84;5047121;28;20451;-75
2024/02/17 06:44:33;;;;;;;14.10;10.50;;;8.20;99.90;;;7.99;100.00;98925.31;5044783;28;20451;-76
2024/02/17 06:47:00;;;;;;;20.30;13.33;;;8.30;99.90;;;8.16;100.00;98930.59;5046850;28;20477;-74
2024/02/17 06:49:27;;;;;;;20.80;13.40;;;8.50;99.90;;;8.37;100.00;98946.13;5045946;28;20448;-76
2024/02/17 06:51:55;;;;;;;16.93;12.57;;;8.60;99.90;;;8.35;100.00;98948.16;5050476;28;20461;-77
2024/02/17 06:54:23;;;;;;;19.03;13.57;;;8.70;99.90;;;8.39;100.00;98954.84;5045459;28;20454;-78
2024/02/17 06:56:50;;;;;;;18.23;13.60;;;8.80;99.90;;;8.54;100.00;98956.81;5045454;28;20459;-77
2024/02/17 06:59:17;;;;;;;20.23;13.07;;;8.90;99.90;;;8.55;100.00;98972.81;5045012;28;20489;-74
2024/02/17 07:01:45;;;;;;;15.73;11.70;;;8.90;99.90;;;8.63;100.00;98948.50;5046304;28;20489;-77
2024/02/17 07:04:13;;;;;;;15.93;12.20;;;9.00;99.90;;;8.79;100.00;98963.69;5049494;28;20442;-77
2024/02/17 07:06:43;;;;;;;18.90;13.30;;;9.10;99.90;;;8.89;100.00;98973.41;5049467;28;20465;-76
2024/02/17 07:09:14;;;;;;;17.70;12.27;;;9.10;99.90;;;8.96;100.00;98973.53;5045386;28;20463;-76
2024/02/17 07:11:43;;;;;;;18.67;11.90;;;9.20;99.90;;;8.97;100.00;98972.50;5048815;28;20887;-77
2024/02/17 07:14:12;;;;;;;19.67;12.03;;;9.20;99.90;;;9.10;100.00;98985.34;5047504;28;20440;-78
2024/02/17 07:16:39;;;;;;;16.83;11.80;;;9.30;99.90;;;9.05;100.00;98984.06;5070483;28;20474;-79
2024/02/17 07:19:08;;;;;;;18.10;11.23;;;9.30;99.90;;;9.15;100.00;98993.72;5043430;28;21219;-77
2024/02/17 07:21:35;;;;;;;16.57;11.37;;;9.40;99.90;;;9.16;100.00;98992.69;5053294;28;20555;-78
2024/02/17 07:24:02;;;;;;;17.13;12.60;;;9.40;99.90;;;9.21;100.00;99012.72;5054796;28;20452;-78
2024/02/17 07:26:29;;;;;;;18.40;13.27;;;9.50;99.90;;;9.34;100.00;99013.94;5050762;28;20473;-78
2024/02/17 07:28:58;;;;;;;19.33;14.10;;;9.50;99.90;;;9.40;100.00;99017.78;5054498;28;20456;-78
2024/02/17 07:31:29;;;;;;;20.27;14.77;;;9.60;99.90;;;9.37;100.00;99016.28;5039977;28;20460;-78
2024/02/17 07:33:57;;;;;;;20.10;13.37;;;9.70;99.90;;;9.32;100.00;99019.50;5047430;28;20450;-77
2024/02/17 07:36:26;;;;;;;19.30;13.03;;;9.70;99.90;;;9.44;100.00;99029.88;5052855;28;20458;-77
2024/02/17 07:38:54;;;;;;;18.37;12.77;;;9.70;99.90;;;9.49;100.00;99038.28;5054252;28;20457;-77
2024/02/17 07:41:21;;;;;;;26.57;15.13;;;9.70;99.90;;;9.57;100.00;99046.25;5058433;28;20449;-78
2024/02/17 07:43:50;;;;;;;19.87;13.90;;;9.80;99.90;;;9.68;100.00;99042.28;5053984;28;20526;-78
2024/02/17 07:46:17;;;;;;;20.63;15.10;;;9.90;99.90;;;9.80;100.00;99055.31;5050481;28;20806;-77
2024/02/17 07:48:45;;;;;;;20.30;12.73;;;9.90;99.90;;;9.58;100.00;99064.13;5049755;28;21219;-78
2024/02/17 07:51:12;;;;;;;24.13;14.13;;;9.90;99.90;;;9.75;100.00;99063.97;5044502;28;20575;-78
2024/02/17 07:53:41;;;;;;;18.30;13.00;;;10.00;99.90;;;9.82;100.00;99054.13;5052203;28;20451;-78
2024/02/17 07:56:10;;;;;;;26.73;17.00;;;10.10;99.90;;;9.77;100.00;99072.72;5055175;28;20469;-76
2024/02/17 07:58:38;;;;;;;39.80;22.80;;;10.10;99.90;;;9.45;100.00;99037.78;5055488;28;20456;-82
2024/02/17 08:01:06;;;;;;;28.23;18.70;;;10.10;99.90;;;9.93;100.00;99066.31;5049621;28;20462;-78
2024/02/17 08:03:33;;;;;;;24.73;14.97;;;10.20;99.90;;;10.01;100.00;99079.75;5043307;28;20457;-77
2024/02/17 08:06:02;;;;;;;17.97;13.23;;;10.30;99.90;;;9.79;100.00;99076.09;5044984;28;20433;-78
2024/02/17 08:08:29;;;;;;;18.80;12.57;;;10.20;98.20;;;9.83;100.00;99069.28;5042933;28;20473;-77
2024/02/17 08:10:58;;;;;;;21.00;13.43;;;10.30;98.10;;;10.01;100.00;99079.75;5065622;28;20460;-78
2024/02/17 08:13:25;;;;;;;24.00;15.10;;;10.30;97.70;;;9.94;100.00;99089.59;5054712;28;20478;-76
2024/02/17 08:15:53;;;;;;;24.70;15.57;;;10.40;96.50;;;9.88;100.00;99091.16;5047762;28;20468;-77
2024/02/17 08:18:20;;;;;;;21.30;15.53;;;10.30;96.10;;;9.90;100.00;99110.69;5055679;28;20492;-75
2024/02/17 08:20:49;;;;;;;27.27;14.07;;;10.30;96.20;;;10.03;99.20;99101.13;5055041;28;20458;-76
2024/02/17 08:23:17;;;;;;;23.00;16.20;;;10.40;96.10;;;10.37;98.41;99099.72;5047879;28;20468;-78
2024/02/17 08:25:44;;;;;;;22.43;15.17;;;10.70;96.20;;;10.46;95.89;99093.22;5051209;28;20950;-75
2024/02/17 08:28:12;;;;;;;23.73;15.97;;;10.80;94.30;;;10.56;95.34;99116.44;5062430;28;20504;-76
2024/02/17 08:30:39;;;;;;;19.53;14.23;;;10.90;93.90;;;10.40;94.65;99112.03;5054530;28;20445;-78
2024/02/17 08:33:07;;;;;;;22.80;14.77;;;10.80;93.00;;;10.07;93.98;99115.94;5047958;28;20463;-78
2024/02/17 08:35:35;;;;;;;20.27;14.80;;;10.60;92.30;;;9.99;95.39;99129.53;5055096;28;20487;-77
2024/02/17 08:38:03;;;;;;;21.17;15.37;;;10.50;92.90;;;10.04;95.66;99119.84;5057445;28;20453;-78
2024/02/17 08:40:30;;;;;;;24.43;16.50;;;10.40;93.40;;;9.94;96.52;99115.75;5049344;28;20846;-77
2024/02/17 08:42:57;;;;;;;23.03;16.00;;;10.30;94.10;;;9.97;96.55;99127.00;5084544;28;20465;-75
2024/02/17 08:45:26;;;;;;;22.53;16.47;;;10.30;94.20;;;10.13;95.66;99142.22;5064243;28;20451;-76
2024/02/17 08:47:53;;;;;;;23.63;15.57;;;10.50;94.00;;;10.49;93.95;99143.38;5064439;28;20860;-75
2024/02/17 08:50:22;;;;;;;20.40;14.87;;;10.70;94.00;;;10.38;93.53;99141.91;5066186;28;20449;-75
2024/02/17 08:52:49;;;;;;;22.67;14.93;;;10.70;92.70;;;10.54;92.26;99135.53;5057215;28;20453;-77
2024/02/17 08:55:17;;;;;;;18.30;14.40;;;10.80;92.70;;;10.69;90.54;99145.47;5065020;28;20456;-76
2024/02/17 08:57:44;;;;;;;24.57;15.33;;;11.00;91.90;;;10.98;89.37;99154.56;5047200;28;20968;-76
2024/02/17 09:00:14;;;;;;;23.50;15.67;;;11.20;91.60;;;11.10;88.37;99150.34;5041227;28;20479;-77
2024/02/17 09:02:44;;;;;;;21.30;14.80;;;11.40;91.50;;;11.27;87.51;99156.34;5065129;28;20540;-77
2024/02/17 09:05:11;;;;;;;19.43;15.00;;;11.60;91.00;;;10.95;87.79;99139.56;5054831;28;20959;-76
2024/02/17 09:07:39;;;;;;;18.27;13.97;;;11.40;90.50;;;10.60;87.16;99153.69;5056608;28;20542;-75
2024/02/17 09:10:08;;;;;;;17.03;13.33;;;11.10;90.20;;;10.56;88.38;99156.97;5055106;28;20470;-76
2024/02/17 09:12:35;;;;;;;19.60;13.17;;;11.00;90.50;;;10.49;89.53;99162.28;5054974;28;20457;-77
2024/02/17 09:15:03;;;;;;;19.97;14.60;;;10.90;90.70;;;10.54;89.24;99159.00;5052867;28;20455;-78
2024/02/17 09:17:30;;;;;;;15.90;11.43;;;10.90;91.00;;;10.34;85.92;99167.63;5052058;28;20506;-76
2024/02/17 09:19:59;;;;;;;18.70;14.10;;;10.80;90.00;;;10.18;88.02;99152.47;5052659;28;20513;-76
2024/02/17 09:22:26;;;;;;;18.43;13.70;;;10.70;90.10;;;10.30;86.69;99155.53;5053041;28;20452;-77
2024/02/17 09:24:55;;;;;;;15.90;12.70;;;10.80;90.20;;;10.32;86.52;99172.38;5051555;28;20503;-77
2024/02/17 09:27:22;;;;;;;17.20;14.27;;;10.80;89.70;;;10.33;85.43;99176.78;5050970;28;20697;-76
2024/02/17 09:29:50;;;;;;;17.73;11.90;;;10.80;89.20;;;10.38;85.98;99171.63;5050764;28;20446;-78
2024/02/17 09:32:17;;;;;;;17.40;12.47;;;10.80;89.60;;;10.41;83.76;99176.72;5050586;28;20836;-76
2024/02/17 09:34:45;;;;;;;15.30;11.17;;;10.80;88.60;;;10.28;83.67;99181.91;5040297;28;20456;-76
2024/02/17 09:37:13;;;;;;;16.93;12.60;;;10.80;88.00;;;10.29;84.03;99181.69;5049357;28;20448;-77
2024/02/17 09:39:42;;;;;;;16.30;12.37;;;10.70;88.30;;;10.42;83.95;99182.94;5046435;28;20467;-77
2024/02/17 09:42:09;;;;;;;17.33;12.70;;;10.80;88.50;;;10.74;83.28;99197.97;5054198;28;20456;-77
2024/02/17 09:44:37;;;;;;;18.20;13.50;;;11.00;88.50;;;10.95;83.70;99193.63;5051709;28;20938;-77
2024/02/17 09:47:05;;;;;;;15.90;12.20;;;11.20;88.60;;;10.89;82.51;99200.63;5043842;28;20476;-77
2024/02/17 09:49:36;;;;;;;17.83;12.67;;;11.30;87.80;;;10.83;81.91;99185.19;5050819;28;20451;-76
2024/02/17 09:52:05;;;;;;;16.90;12.77;;;11.30;87.50;;;11.09;81.98;99193.78;5040904;28;20461;-77
2024/02/17 09:54:34;;;;;;;17.03;12.40;;;11.50;87.90;;;11.11;80.07;99156.56;5054140;28;20996;-78
2024/02/17 09:57:02;;;;;;;15.20;12.43;;;11.70;87.10;;;11.85;78.33;99214.97;5055426;28;20474;-78
2024/02/17 09:59:29;;;;;;;15.40;11.63;;;12.00;86.50;;;11.81;77.08;99207.44;5047116;28;20463;-75
2024/02/17 10:01:57;;;;;;;17.57;11.30;;;12.20;85.40;;;11.57;77.04;99223.88;5044695;28;20816;-76
2024/02/17 10:04:26;;;;;;;14.90;11.17;;;12.00;85.00;;;11.51;77.75;99227.38;5033344;28;20805;-77
2024/02/17 10:07:00;;;;;;;14.20;11.80;;;12.00;85.20;;;11.45;77.65;99230.84;5060809;28;20939;-77
2024/02/17 10:09:28;;;;;;;14.10;11.50;;;11.90;84.90;;;11.89;76.86;99237.94;5034616;28;20535;-76
2024/02/17 10:11:57;;;;;;;14.30;12.00;;;12.10;85.20;;;11.88;76.04;99252.50;5047498;28;20790;-77
2024/02/17 10:14:26;;;;;;;18.40;13.30;;;12.20;84.40;;;12.06;74.41;99240.44;5051557;28;20447;-77
2024/02/17 10:16:58;;;;;;;16.77;12.20;;;12.30;83.80;;;12.01;74.38;99240.13;5041973;28;20877;-77